Time;durP1;ratioP1;P1;durP2;ratioP2;P2;SDS_P1;SDS_P2;PMS_P1;PMS_P2;Temp;Humidity;BMP_temperature;BMP_pressure;BME280_temperature;BME280_humidity;BME280_pressure;Samples;Min_cycle;Max_cycle;Signal;HPM_P1;HPM_P2
2022/01/29 00:01:37;;;;;;;326.02;139.60;;;1.80;99.90;;;;;;5118424;28;20024;-52
2022/01/29 00:04:03;;;;;;;297.20;133.65;;;1.90;99.90;;;;;;5118270;28;20092;-52
2022/01/29 00:06:32;;;;;;;291.63;135.48;;;1.80;99.90;;;;;;5118276;28;20084;-52
2022/01/29 00:08:58;;;;;;;279.17;132.25;;;1.80;99.90;;;;;;5118437;28;20035;-52
2022/01/29 00:11:35;;;;;;;273.63;125.30;;;1.80;99.90;;;;;;5118215;28;20024;-52
2022/01/29 00:14:01;;;;;;;323.40;136.73;;;1.70;99.90;;;;;;5118107;28;20042;-52
2022/01/29 00:16:27;;;;;;;441.65;188.15;;;1.70;99.90;;;;;;5118268;28;20031;-52
2022/01/29 00:18:53;;;;;;;363.20;154.38;;;1.70;99.90;;;;;;5117979;28;20028;-52
2022/01/29 00:21:19;;;;;;;313.48;147.05;;;1.70;99.90;;;;;;5118113;28;20043;-52
2022/01/29 00:23:45;;;;;;;296.42;138.05;;;1.70;99.90;;;;;;5117939;28;20035;-52
2022/01/29 00:26:11;;;;;;;327.48;154.15;;;1.70;99.90;;;;;;5117859;28;20111;-52
2022/01/29 00:28:37;;;;;;;326.25;147.88;;;1.60;99.90;;;;;;5117993;28;20514;-52
2022/01/29 00:31:03;;;;;;;323.77;148.70;;;1.70;99.90;;;;;;5117733;28;20051;-52
2022/01/29 00:33:29;;;;;;;344.55;153.57;;;1.60;99.90;;;;;;5117566;28;20053;-52
2022/01/29 00:35:55;;;;;;;359.13;165.30;;;1.60;99.90;;;;;;5117831;28;20354;-52
2022/01/29 00:38:21;;;;;;;350.33;157.18;;;1.70;99.90;;;;;;5118073;28;20040;-52
2022/01/29 00:40:47;;;;;;;422.65;193.55;;;1.70;99.90;;;;;;5117499;28;20031;-52
2022/01/29 00:43:14;;;;;;;414.23;193.27;;;1.70;99.90;;;;;;5117495;28;20481;-52
2022/01/29 00:45:40;;;;;;;399.90;193.32;;;1.70;99.90;;;;;;5117564;28;20385;-52
2022/01/29 00:48:06;;;;;;;388.05;184.80;;;1.70;99.90;;;;;;5117645;28;20034;-52
2022/01/29 00:50:32;;;;;;;331.38;154.57;;;1.80;99.90;;;;;;5117340;28;20020;-52
2022/01/29 00:52:58;;;;;;;288.23;134.05;;;1.80;99.90;;;;;;5117531;28;20203;-52
2022/01/29 00:55:24;;;;;;;358.95;156.73;;;1.80;99.90;;;;;;5117474;28;20107;-52
2022/01/29 00:57:53;;;;;;;534.40;247.23;;;1.80;99.90;;;;;;5117246;28;20072;-52
2022/01/29 01:00:19;;;;;;;652.47;298.63;;;1.80;99.90;;;;;;5117258;28;20054;-52
2022/01/29 01:02:45;;;;;;;669.70;311.70;;;1.60;99.90;;;;;;5117443;28;20038;-52
2022/01/29 01:05:11;;;;;;;525.88;233.90;;;1.60;99.90;;;;;;5117147;28;20099;-52
2022/01/29 01:07:38;;;;;;;583.75;278.15;;;1.60;99.90;;;;;;5117351;28;20054;-52
2022/01/29 01:10:08;;;;;;;571.75;271.63;;;1.70;99.90;;;;;;5117426;28;20024;-52
2022/01/29 01:12:35;;;;;;;514.47;238.45;;;1.70;99.90;;;;;;5116130;28;20086;-52
2022/01/29 01:15:02;;;;;;;368.52;170.48;;;1.80;99.90;;;;;;5116967;28;20019;-52
2022/01/29 01:17:28;;;;;;;299.70;139.35;;;1.80;99.90;;;;;;5116951;28;20045;-52
2022/01/29 01:19:54;;;;;;;345.40;157.25;;;1.80;99.90;;;;;;5117047;28;20327;-52
2022/01/29 01:22:20;;;;;;;314.92;148.40;;;1.80;99.90;;;;;;5116991;28;20461;-52
2022/01/29 01:24:47;;;;;;;331.80;154.30;;;1.80;99.90;;;;;;5116791;28;20087;-52
2022/01/29 01:27:16;;;;;;;312.55;143.95;;;1.80;99.90;;;;;;5116867;28;20019;-52
2022/01/29 01:29:42;;;;;;;256.13;118.78;;;1.80;99.90;;;;;;5116421;28;20036;-52
2022/01/29 01:32:11;;;;;;;234.18;112.15;;;1.90;99.90;;;;;;5116776;27;20031;-52
2022/01/29 01:34:42;;;;;;;235.10;107.97;;;1.80;99.90;;;;;;5116804;28;20422;-52
2022/01/29 01:37:12;;;;;;;221.40;103.22;;;1.90;99.90;;;;;;5116622;28;20030;-52
2022/01/29 01:39:40;;;;;;;183.07;85.70;;;1.90;99.90;;;;;;5116639;28;20050;-52
2022/01/29 01:42:07;;;;;;;181.98;92.25;;;1.90;99.90;;;;;;5116390;28;20031;-52
2022/01/29 01:44:36;;;;;;;203.05;96.30;;;1.90;99.90;;;;;;5116561;28;20028;-52
2022/01/29 01:47:03;;;;;;;197.95;96.28;;;1.90;99.90;;;;;;5116124;28;20031;-52
2022/01/29 01:49:29;;;;;;;181.52;88.50;;;1.90;99.90;;;;;;5116332;28;20020;-52
2022/01/29 01:51:55;;;;;;;185.98;87.13;;;1.90;99.90;;;;;;5116323;28;20049;-52
2022/01/29 01:54:22;;;;;;;196.85;93.18;;;1.90;99.90;;;;;;5116158;28;20024;-52
2022/01/29 01:56:48;;;;;;;197.52;94.47;;;1.80;99.90;;;;;;5116079;28;20524;-52
2022/01/29 01:59:14;;;;;;;189.85;91.28;;;1.80;99.90;;;;;;5116083;28;20038;-52
2022/01/29 02:01:40;;;;;;;194.10;94.13;;;1.90;99.90;;;;;;5116156;28;20032;-52
2022/01/29 02:04:06;;;;;;;193.98;91.95;;;1.80;99.90;;;;;;5115971;28;20080;-52
2022/01/29 02:06:33;;;;;;;190.88;91.43;;;1.80;99.90;;;;;;5115952;28;20449;-52
2022/01/29 02:09:00;;;;;;;178.75;84.38;;;1.80;99.90;;;;;;5115876;28;20477;-52
2022/01/29 02:11:27;;;;;;;163.82;79.32;;;1.80;99.90;;;;;;5115999;28;20106;-52
2022/01/29 02:13:56;;;;;;;153.65;72.10;;;1.80;99.90;;;;;;5115788;28;20564;-52
2022/01/29 02:16:23;;;;;;;154.38;76.13;;;1.90;99.90;;;;;;5116028;28;20273;-52
2022/01/29 02:18:49;;;;;;;171.43;80.88;;;1.90;99.90;;;;;;5115580;28;20439;-52
2022/01/29 02:21:19;;;;;;;155.35;72.75;;;1.90;99.90;;;;;;5115895;28;20035;-52
2022/01/29 02:23:45;;;;;;;72.05;34.05;;;1.90;99.90;;;;;;5115365;28;20652;-52
2022/01/29 02:26:11;;;;;;;123.43;58.38;;;1.90;99.90;;;;;;5115511;28;20051;-52
2022/01/29 02:28:38;;;;;;;89.40;46.63;;;2.00;99.90;;;;;;5115567;28;20091;-52
2022/01/29 02:31:04;;;;;;;110.57;53.08;;;2.00;99.90;;;;;;5115291;28;20043;-52
2022/01/29 02:33:34;;;;;;;83.43;39.88;;;2.00;99.90;;;;;;5115543;28;20031;-52
2022/01/29 02:36:01;;;;;;;89.07;43.03;;;2.00;99.90;;;;;;5115587;28;20464;-52
2022/01/29 02:38:27;;;;;;;69.82;34.83;;;2.10;99.90;;;;;;5115436;28;20440;-52
2022/01/29 02:40:59;;;;;;;56.92;27.58;;;2.10;99.90;;;;;;5115363;28;20028;-52
2022/01/29 02:43:34;;;;;;;66.13;25.80;;;2.20;99.90;;;;;;5115256;28;20516;-52
2022/01/29 02:46:07;;;;;;;56.92;26.77;;;2.20;99.90;;;;;;5115391;28;20023;-52
2022/01/29 02:48:39;;;;;;;52.15;25.08;;;2.20;99.90;;;;;;5115252;27;20024;-52
2022/01/29 02:51:10;;;;;;;50.85;21.42;;;2.30;99.90;;;;;;5115257;28;20023;-52
2022/01/29 02:53:37;;;;;;;42.22;20.20;;;2.30;99.90;;;;;;5115175;28;20035;-52
2022/01/29 02:56:03;;;;;;;39.10;17.02;;;2.30;99.90;;;;;;5115550;28;20028;-52
2022/01/29 02:58:29;;;;;;;39.33;18.05;;;2.40;99.90;;;;;;5114471;28;20044;-52
2022/01/29 03:00:55;;;;;;;33.47;13.57;;;2.40;99.90;;;;;;5115495;28;20027;-52
2022/01/29 03:03:21;;;;;;;21.48;8.20;;;2.40;99.90;;;;;;5114881;28;20040;-52
2022/01/29 03:05:47;;;;;;;16.45;6.32;;;2.50;99.90;;;;;;5115045;28;20024;-52
2022/01/29 03:08:13;;;;;;;20.55;5.47;;;2.50;99.90;;;;;;5115059;28;20031;-52
2022/01/29 03:10:39;;;;;;;16.70;4.30;;;2.50;99.90;;;;;;5114993;28;20032;-52
2022/01/29 03:13:05;;;;;;;11.80;2.78;;;2.60;99.90;;;;;;5115078;28;20058;-52
2022/01/29 03:15:31;;;;;;;13.73;3.33;;;2.60;99.90;;;;;;5114880;28;20042;-52
2022/01/29 03:17:57;;;;;;;7.25;2.80;;;2.80;99.90;;;;;;5114793;28;20111;-52
2022/01/29 03:20:23;;;;;;;13.00;3.90;;;2.80;99.90;;;;;;5114961;28;20098;-52
2022/01/29 03:22:49;;;;;;;12.27;2.05;;;2.80;99.90;;;;;;5114807;28;22321;-52
2022/01/29 03:25:18;;;;;;;9.25;2.78;;;2.80;99.90;;;;;;5114836;28;20027;-52
2022/01/29 03:27:44;;;;;;;10.82;3.15;;;2.80;99.90;;;;;;5114832;28;20020;-52
2022/01/29 03:30:11;;;;;;;14.40;2.70;;;2.80;99.90;;;;;;5114641;28;20040;-52
2022/01/29 03:32:37;;;;;;;9.57;2.40;;;2.80;99.90;;;;;;5114885;28;20019;-52
2022/01/29 03:35:04;;;;;;;13.60;2.75;;;2.90;99.90;;;;;;5114704;28;20432;-52
2022/01/29 03:37:29;;;;;;;15.10;2.70;;;2.90;99.90;;;;;;5114790;28;20033;-52
2022/01/29 03:40:00;;;;;;;10.85;2.22;;;2.90;99.90;;;;;;5114620;28;20024;-52
2022/01/29 03:42:28;;;;;;;13.40;3.03;;;3.00;99.90;;;;;;5114596;28;20076;-52
2022/01/29 03:44:54;;;;;;;9.88;2.83;;;3.00;99.90;;;;;;5114483;28;20035;-52
2022/01/29 03:47:20;;;;;;;9.00;2.30;;;3.00;99.90;;;;;;5114771;28;20593;-52
2022/01/29 03:49:46;;;;;;;10.00;2.80;;;3.00;99.90;;;;;;5114682;28;20028;-52
2022/01/29 03:52:12;;;;;;;11.18;2.42;;;3.00;99.90;;;;;;5114632;28;20103;-52
2022/01/29 03:54:38;;;;;;;12.88;2.72;;;3.00;99.90;;;;;;5114433;28;20024;-52
2022/01/29 03:57:04;;;;;;;14.18;3.13;;;3.00;99.90;;;;;;5114741;28;20469;-52
2022/01/29 03:59:30;;;;;;;9.35;2.38;;;3.00;99.90;;;;;;5114267;28;20472;-52
2022/01/29 04:01:58;;;;;;;11.70;2.38;;;3.00;99.90;;;;;;5114673;28;20111;-52
2022/01/29 04:04:24;;;;;;;8.70;2.05;;;3.10;99.90;;;;;;5114428;28;20115;-52
2022/01/29 04:06:53;;;;;;;10.52;2.33;;;3.10;99.90;;;;;;5114376;28;20067;-52
2022/01/29 04:09:20;;;;;;;10.88;2.40;;;3.10;99.90;;;;;;5116607;28;20047;-52
2022/01/29 04:11:46;;;;;;;10.95;2.33;;;3.10;99.90;;;;;;5118370;28;20024;-52
2022/01/29 04:14:17;;;;;;;12.82;2.70;;;3.10;99.90;;;;;;5118281;28;20393;-52
2022/01/29 04:16:43;;;;;;;;;;;3.10;99.90;;;;;;5118602;28;20024;-52
2022/01/29 04:19:10;;;;;;;11.32;2.42;;;3.20;99.90;;;;;;5118293;28;19912;-52
2022/01/29 04:21:36;;;;;;;7.47;2.10;;;3.20;99.90;;;;;;5118100;28;20477;-52
2022/01/29 04:24:02;;;;;;;10.68;2.75;;;3.10;99.90;;;;;;5117938;28;20039;-52
2022/01/29 04:26:33;;;;;;;13.50;2.75;;;3.20;99.90;;;;;;5118134;28;20023;-52
2022/01/29 04:29:06;;;;;;;10.85;2.80;;;3.20;99.90;;;;;;5117969;27;20111;-52
2022/01/29 04:31:40;;;;;;;16.13;3.25;;;3.20;99.90;;;;;;5117589;28;20043;-52
2022/01/29 04:34:12;;;;;;;14.48;3.15;;;3.20;99.90;;;;;;5117819;28;20459;-52
2022/01/29 04:36:37;;;;;;;12.68;2.60;;;3.20;99.90;;;;;;5117819;28;20023;-52
2022/01/29 04:39:04;;;;;;;6.00;1.85;;;3.20;99.90;;;;;;5117691;28;20073;-52
2022/01/29 04:41:30;;;;;;;11.52;2.78;;;3.20;99.90;;;;;;5117407;28;20107;-52
2022/01/29 04:43:56;;;;;;;13.88;3.00;;;3.10;99.90;;;;;;5117644;28;20051;-52
2022/01/29 04:46:22;;;;;;;11.85;2.50;;;3.10;99.90;;;;;;5117608;28;20094;-52
2022/01/29 04:48:48;;;;;;;12.90;2.90;;;3.00;99.90;;;;;;5117561;28;20138;-52
2022/01/29 04:51:14;;;;;;;15.77;3.58;;;3.10;99.90;;;;;;5117422;28;20040;-52
2022/01/29 04:53:40;;;;;;;14.82;3.28;;;3.00;99.90;;;;;;5117327;28;20031;-52
2022/01/29 04:56:07;;;;;;;16.38;3.13;;;3.00;99.90;;;;;;5117486;28;20039;-52
2022/01/29 04:58:34;;;;;;;16.70;3.08;;;3.00;99.90;;;;;;5117421;28;20465;-52
2022/01/29 05:01:00;;;;;;;9.30;2.58;;;3.00;99.90;;;;;;5117327;28;20118;-52
2022/01/29 05:03:26;;;;;;;12.40;3.25;;;3.00;99.90;;;;;;5117361;28;20131;-52
2022/01/29 05:05:52;;;;;;;13.65;3.30;;;3.00;99.90;;;;;;5117204;28;20061;-52
2022/01/29 05:08:20;;;;;;;13.98;4.00;;;3.10;99.90;;;;;;5117133;28;20389;-52
2022/01/29 05:10:47;;;;;;;29.17;3.17;;;3.00;99.90;;;;;;5117227;28;20053;-52
2022/01/29 05:13:18;;;;;;;16.65;3.03;;;3.00;99.90;;;;;;5117211;28;20024;-52
2022/01/29 05:26:57;;;;;;;15.20;4.57;;;2.80;99.90;;;;;;5116781;28;20414;-52
2022/01/29 05:29:26;;;;;;;17.80;5.00;;;2.90;99.90;;;;;;5116597;28;20167;-52
2022/01/29 05:31:56;;;;;;;20.08;4.97;;;2.80;99.90;;;;;;5116736;28;20027;-52
2022/01/29 05:34:22;;;;;;;14.68;4.43;;;2.70;99.90;;;;;;5116608;28;20027;-52
2022/01/29 05:36:48;;;;;;;19.90;6.05;;;2.60;99.90;;;;;;5116762;28;20024;-52
2022/01/29 05:39:15;;;;;;;18.25;5.68;;;2.60;99.90;;;;;;5116808;28;20030;-52
2022/01/29 05:41:41;;;;;;;18.40;5.78;;;2.60;99.90;;;;;;5116463;28;20169;-52
2022/01/29 05:44:08;;;;;;;25.48;6.40;;;2.50;99.90;;;;;;5116499;28;20035;-52
2022/01/29 05:46:34;;;;;;;28.00;7.85;;;2.40;99.90;;;;;;5116416;28;20492;-52
2022/01/29 05:49:00;;;;;;;24.58;9.05;;;2.50;99.90;;;;;;5116296;28;20027;-52
2022/01/29 05:51:29;;;;;;;31.90;11.30;;;2.50;99.90;;;;;;5116205;28;20038;-52
2022/01/29 05:53:59;;;;;;;32.40;10.77;;;2.50;99.90;;;;;;5116240;28;20023;-52
2022/01/29 05:56:27;;;;;;;34.10;11.25;;;2.50;99.90;;;;;;5116277;28;20057;-52
2022/01/29 05:58:53;;;;;;;36.58;10.77;;;2.50;99.90;;;;;;5116318;28;20020;-52
2022/01/29 06:01:20;;;;;;;31.23;9.88;;;2.60;99.90;;;;;;5116077;28;20031;-52
2022/01/29 06:03:46;;;;;;;34.25;11.13;;;2.50;99.90;;;;;;5115934;28;20080;-52
2022/01/29 06:06:12;;;;;;;45.25;15.65;;;2.30;99.90;;;;;;5115960;28;20092;-52
2022/01/29 06:08:38;;;;;;;40.58;13.52;;;2.30;99.90;;;;;;5115997;28;20024;-52
2022/01/29 06:11:04;;;;;;;36.17;12.00;;;2.20;99.90;;;;;;5116221;28;20039;-52
2022/01/29 06:13:36;;;;;;;61.17;25.13;;;2.20;99.90;;;;;;5115849;27;20043;-52
2022/01/29 06:16:05;;;;;;;41.60;15.48;;;2.10;99.90;;;;;;5115936;28;20039;-52
2022/01/29 06:18:31;;;;;;;52.63;22.27;;;2.00;99.90;;;;;;5115661;28;20586;-52
2022/01/29 06:21:03;;;;;;;35.42;12.90;;;2.00;99.90;;;;;;5115851;28;20046;-52
2022/01/29 06:23:35;;;;;;;33.22;12.13;;;2.00;99.90;;;;;;5116145;28;20061;-52
2022/01/29 06:26:03;;;;;;;35.95;12.50;;;1.90;99.90;;;;;;5115790;28;20263;-52
2022/01/29 06:28:29;;;;;;;36.10;11.88;;;1.80;99.90;;;;;;5115445;28;20028;-52
2022/01/29 06:30:56;;;;;;;40.33;15.40;;;1.80;99.90;;;;;;5115395;28;20043;-52
2022/01/29 06:33:22;;;;;;;43.83;16.98;;;1.80;99.90;;;;;;5115584;28;20032;-52
2022/01/29 06:35:48;;;;;;;51.60;21.98;;;1.80;99.90;;;;;;5115376;28;20031;-52
2022/01/29 06:38:15;;;;;;;61.90;27.02;;;1.70;99.90;;;;;;5115529;28;20085;-52
2022/01/29 06:40:42;;;;;;;70.40;32.78;;;1.70;99.90;;;;;;5115368;28;20027;-52
2022/01/29 06:43:09;;;;;;;55.90;24.92;;;1.70;99.90;;;;;;5115309;28;20433;-52
2022/01/29 06:45:37;;;;;;;54.25;23.23;;;1.70;99.90;;;;;;5115390;28;20452;-52
2022/01/29 06:48:05;;;;;;;55.50;22.08;;;1.80;99.90;;;;;;5115375;28;20485;-52
2022/01/29 06:50:31;;;;;;;54.78;23.42;;;1.80;99.90;;;;;;5115133;28;20019;-52
2022/01/29 06:52:57;;;;;;;54.35;21.05;;;1.80;99.90;;;;;;5115616;28;20019;-52
2022/01/29 06:55:23;;;;;;;45.10;19.00;;;1.80;99.90;;;;;;5115496;28;20035;-52
2022/01/29 06:57:50;;;;;;;52.42;20.17;;;1.80;99.90;;;;;;5114983;28;20392;-52
2022/01/29 07:00:16;;;;;;;47.70;18.42;;;1.80;99.90;;;;;;5115195;28;20160;-52
2022/01/29 07:02:43;;;;;;;45.47;19.98;;;1.90;99.90;;;;;;5115022;28;20502;-52
2022/01/29 07:05:10;;;;;;;47.15;19.33;;;1.90;99.90;;;;;;5115000;28;20037;-52
2022/01/29 07:07:37;;;;;;;41.03;16.90;;;2.00;99.90;;;;;;5115013;28;20077;-52
2022/01/29 07:10:06;;;;;;;45.92;19.92;;;2.10;99.90;;;;;;5114969;28;20377;-52
2022/01/29 07:12:32;;;;;;;63.35;27.25;;;2.20;99.90;;;;;;5114869;28;20049;-52
2022/01/29 07:14:58;;;;;;;55.90;24.52;;;2.50;99.90;;;;;;5114944;28;20034;-52
2022/01/29 07:17:24;;;;;;;63.55;27.23;;;3.50;99.90;;;;;;5114666;28;20122;-52
2022/01/29 07:19:52;;;;;;;65.28;25.02;;;4.80;99.90;;;;;;5114841;28;20118;-53
2022/01/29 07:22:21;;;;;;;44.45;18.70;;;6.40;99.90;;;;;;5114779;28;20451;-53
2022/01/29 07:24:47;;;;;;;50.08;20.15;;;7.70;99.90;;;;;;5114701;28;20384;-53
2022/01/29 07:27:14;;;;;;;36.67;15.27;;;8.60;99.90;;;;;;5114881;28;20047;-53
2022/01/29 07:29:40;;;;;;;41.55;15.32;;;9.30;97.70;;;;;;5114504;28;20553;-53
2022/01/29 07:32:07;;;;;;;31.17;11.93;;;9.60;96.20;;;;;;5114763;28;20118;-53
2022/01/29 07:34:33;;;;;;;22.67;8.93;;;10.60;93.50;;;;;;5094311;28;20134;-53
2022/01/29 07:37:00;;;;;;;25.85;9.65;;;11.70;89.80;;;;;;5094666;28;20353;-53
2022/01/29 07:39:27;;;;;;;19.58;7.78;;;12.50;83.60;;;;;;5094524;28;20035;-53
2022/01/29 07:41:53;;;;;;;25.50;9.65;;;12.70;66.90;;;;;;5094224;28;20039;-53
2022/01/29 07:44:19;;;;;;;22.35;8.93;;;12.20;68.20;;;;;;5096276;28;20256;-53
2022/01/29 07:46:46;;;;;;;25.38;8.52;;;11.60;77.40;;;;;;5098296;28;20051;-53
2022/01/29 07:49:12;;;;;;;20.85;6.82;;;10.20;86.30;;;;;;5098305;28;20432;-53
2022/01/29 07:51:39;;;;;;;29.73;18.52;;;9.30;85.60;;;;;;5113253;28;20019;-53
2022/01/29 07:54:06;;;;;;;18.95;5.38;;;8.90;93.90;;;;;;5118556;27;20032;-53
2022/01/29 07:56:32;;;;;;;12.77;4.80;;;9.10;91.60;;;;;;5118697;28;20060;-53
2022/01/29 07:58:58;;;;;;;18.55;6.60;;;8.90;92.40;;;;;;5118600;28;20032;-53
2022/01/29 08:01:25;;;;;;;33.97;15.27;;;8.90;93.40;;;;;;5118373;28;20058;-53
2022/01/29 08:03:52;;;;;;;25.92;10.70;;;8.40;94.30;;;;;;5118372;27;20062;-53
2022/01/29 08:06:22;;;;;;;35.08;15.93;;;8.00;94.50;;;;;;5118194;28;20020;-53
2022/01/29 08:08:49;;;;;;;27.27;11.10;;;7.80;95.90;;;;;;5118363;28;20039;-53
2022/01/29 08:11:15;;;;;;;34.17;13.27;;;7.40;96.10;;;;;;5118368;28;20523;-53
2022/01/29 08:13:43;;;;;;;27.55;9.10;;;6.90;97.10;;;;;;5118302;28;20027;-53
2022/01/29 08:16:09;;;;;;;14.65;5.32;;;7.20;99.20;;;;;;5118230;28;20027;-53
2022/01/29 08:18:35;;;;;;;17.17;6.35;;;7.60;96.60;;;;;;5118002;28;20499;-53
2022/01/29 08:21:02;;;;;;;18.35;6.03;;;8.20;97.70;;;;;;5118320;28;20035;-53
2022/01/29 08:23:28;;;;;;;16.10;4.75;;;8.90;95.40;;;;;;5117925;28;20392;-53
2022/01/29 08:25:54;;;;;;;21.38;7.10;;;9.00;94.50;;;;;;5118029;28;20396;-53
2022/01/29 08:28:20;;;;;;;38.35;15.20;;;9.00;93.40;;;;;;5117882;28;20034;-53
2022/01/29 08:30:46;;;;;;;19.85;6.53;;;8.80;95.10;;;;;;5117833;28;20051;-53
2022/01/29 08:33:17;;;;;;;19.35;6.93;;;9.20;92.40;;;;;;5117888;28;20028;-53
2022/01/29 08:35:45;;;;;;;24.75;7.28;;;9.10;91.10;;;;;;5117773;28;20031;-53
2022/01/29 08:38:11;;;;;;;24.58;10.35;;;9.90;93.30;;;;;;5117773;28;20053;-53
2022/01/29 08:40:37;;;;;;;17.55;5.22;;;10.90;91.30;;;;;;5117661;28;20036;-53
2022/01/29 08:43:03;;;;;;;21.73;7.30;;;11.40;81.50;;;;;;5117505;28;20042;-53
2022/01/29 08:45:29;;;;;;;33.50;19.27;;;10.90;85.90;;;;;;5117658;28;20020;-53
2022/01/29 08:47:55;;;;;;;19.30;7.13;;;11.10;72.50;;;;;;5117685;28;20024;-53
2022/01/29 08:50:21;;;;;;;21.40;7.60;;;10.40;78.80;;;;;;5117062;28;20032;-53
2022/01/29 08:52:47;;;;;;;22.95;5.57;;;10.60;80.10;;;;;;5117353;28;20035;-53
2022/01/29 08:55:13;;;;;;;18.73;5.60;;;10.10;83.20;;;;;;5115985;28;20027;-53
2022/01/29 08:57:40;;;;;;;17.15;4.35;;;10.20;80.90;;;;;;5117404;28;20084;-53
2022/01/29 09:00:08;;;;;;;22.00;5.60;;;10.30;76.50;;;;;;5117529;28;20068;-53
2022/01/29 09:02:34;;;;;;;25.75;5.88;;;10.10;72.40;;;;;;5117381;28;20084;-53
2022/01/29 09:05:01;;;;;;;24.52;8.00;;;10.30;74.70;;;;;;5117387;28;20660;-53
2022/01/29 09:07:28;;;;;;;27.85;7.35;;;10.00;84.90;;;;;;5117263;28;20151;-53
2022/01/29 09:09:55;;;;;;;29.95;7.07;;;10.00;83.60;;;;;;5117436;28;20111;-53
2022/01/29 09:12:21;;;;;;;34.67;14.10;;;9.90;82.50;;;;;;5117112;28;20035;-53
2022/01/29 09:14:47;;;;;;;19.85;5.95;;;9.30;90.30;;;;;;5117096;27;20484;-53
2022/01/29 09:17:13;;;;;;;49.53;8.68;;;9.20;90.10;;;;;;5116952;28;20028;-53
2022/01/29 09:19:39;;;;;;;36.00;6.78;;;9.00;93.00;;;;;;5116867;28;20100;-53
2022/01/29 09:22:05;;;;;;;32.58;5.72;;;9.00;91.80;;;;;;5116930;28;20074;-53
2022/01/29 09:24:31;;;;;;;30.83;6.05;;;9.30;91.50;;;;;;5116768;28;20023;-53
2022/01/29 09:26:57;;;;;;;11.70;3.55;;;9.70;87.30;;;;;;5116830;28;20082;-53
2022/01/29 09:29:23;;;;;;;17.27;5.20;;;9.50;83.60;;;;;;5116671;28;20026;-53
2022/01/29 09:31:49;;;;;;;44.33;7.63;;;9.40;85.30;;;;;;5116797;28;20023;-53
2022/01/29 09:34:15;;;;;;;31.20;6.13;;;9.50;83.20;;;;;;5116863;28;20032;-53
2022/01/29 09:36:44;;;;;;;29.08;5.28;;;8.80;86.00;;;;;;5116508;28;20465;-53
2022/01/29 09:39:10;;;;;;;20.88;5.40;;;9.30;91.80;;;;;;5116562;28;20028;-53
2022/01/29 09:41:41;;;;;;;34.83;6.57;;;9.50;86.50;;;;;;5116253;28;20122;-53
2022/01/29 09:44:08;;;;;;;36.50;6.40;;;10.10;82.80;;;;;;5116533;28;20067;-53
2022/01/29 09:46:34;;;;;;;34.75;5.95;;;10.60;72.20;;;;;;5116314;28;20393;-53
2022/01/29 09:49:00;;;;;;;78.55;12.63;;;10.30;66.80;;;;;;5116410;28;20038;-53
2022/01/29 09:51:27;;;;;;;53.67;8.73;;;10.10;71.20;;;;;;5116254;28;20023;-53
2022/01/29 09:53:53;;;;;;;16.42;4.47;;;10.10;78.00;;;;;;5116336;28;20067;-53
2022/01/29 09:56:19;;;;;;;37.08;7.40;;;10.00;69.30;;;;;;5116302;28;20023;-53
2022/01/29 09:58:45;;;;;;;25.85;5.25;;;9.30;79.10;;;;;;5116160;28;20054;-53
2022/01/29 10:01:12;;;;;;;51.42;16.65;;;9.20;75.00;;;;;;5116126;28;20039;-53
2022/01/29 10:03:38;;;;;;;45.15;10.15;;;9.20;84.50;;;;;;5116265;28;20059;-53
2022/01/29 10:06:04;;;;;;;19.60;4.82;;;9.70;77.00;;;;;;5115496;28;20059;-53
2022/01/29 10:08:42;;;;;;;34.80;5.82;;;10.80;73.60;;;;;;5115976;28;20042;-53
2022/01/29 10:11:21;;;;;;;23.08;4.80;;;12.10;53.20;;;;;;5116190;28;20038;-53
2022/01/29 10:13:47;;;;;;;20.20;4.43;;;13.60;51.20;;;;;;5115923;27;20036;-53
2022/01/29 10:16:19;;;;;;;15.43;3.78;;;13.50;46.70;;;;;;5116070;28;20361;-53
2022/01/29 10:19:09;;;;;;;11.05;3.35;;;12.60;47.40;;;;;;5115224;28;20035;-53
2022/01/29 10:21:37;;;;;;;10.40;4.70;;;12.30;48.30;;;;;;5115780;28;20035;-53
2022/01/29 10:24:11;;;;;;;24.05;6.93;;;11.90;50.80;;;;;;5115549;28;20039;-53
2022/01/29 10:26:39;;;;;;;32.15;5.78;;;12.10;55.10;;;;;;5115545;28;20423;-53
2022/01/29 10:29:07;;;;;;;21.60;7.13;;;12.50;49.30;;;;;;5115451;28;20048;-53
2022/01/29 10:31:44;;;;;;;18.67;4.30;;;13.60;45.20;;;;;;5115341;28;20048;-53
2022/01/29 10:34:22;;;;;;;26.75;4.00;;;12.50;46.50;;;;;;5115603;28;20092;-53
2022/01/29 10:37:18;;;;;;;22.17;4.55;;;12.50;48.30;;;;;;5115452;28;20027;-53
2022/01/29 10:39:55;;;;;;;14.55;3.58;;;12.50;44.70;;;;;;5113682;28;20047;-53
2022/01/29 10:42:24;;;;;;;33.65;5.45;;;14.00;48.50;;;;;;5114981;28;20062;-53
2022/01/29 10:44:54;;;;;;;15.40;4.57;;;14.10;42.00;;;;;;5115201;28;20036;-53
2022/01/29 10:47:20;;;;;;;24.17;5.93;;;14.20;40.70;;;;;;5115632;28;20027;-53
2022/01/29 10:49:59;;;;;;;20.75;4.35;;;14.10;40.80;;;;;;5115218;28;20031;-53
2022/01/29 10:52:35;;;;;;;18.60;3.47;;;13.30;41.50;;;;;;5094887;28;20084;-53
2022/01/29 10:55:05;;;;;;;11.80;3.03;;;12.60;41.40;;;;;;5094869;28;20024;-53
2022/01/29 10:57:39;;;;;;;25.65;6.47;;;11.60;43.40;;;;;;5094904;28;20035;-53
2022/01/29 11:00:17;;;;;;;12.25;3.40;;;11.50;44.40;;;;;;5094679;28;20060;-53
2022/01/29 11:02:44;;;;;;;10.50;3.53;;;11.40;46.20;;;;;;5094626;28;20470;-53
2022/01/29 11:05:10;;;;;;;9.90;3.47;;;12.40;47.40;;;;;;5094543;28;20090;-53
2022/01/29 11:07:37;;;;;;;16.52;5.25;;;12.80;43.70;;;;;;5094795;28;20519;-53
2022/01/29 11:10:06;;;;;;;18.30;8.77;;;13.30;43.10;;;;;;5094633;28;20466;-53
2022/01/29 11:12:34;;;;;;;19.20;8.00;;;13.30;44.00;;;;;;5094528;28;20603;-53
2022/01/29 11:15:02;;;;;;;23.77;8.32;;;13.00;46.40;;;;;;5094649;28;20035;-53
2022/01/29 11:17:29;;;;;;;18.27;5.70;;;13.10;44.40;;;;;;5094212;28;20032;-53
2022/01/29 11:19:56;;;;;;;28.65;7.00;;;11.80;43.80;;;;;;5094410;28;20060;-53
2022/01/29 11:22:40;;;;;;;29.55;8.50;;;11.40;45.40;;;;;;5094405;28;20024;-53
2022/01/29 11:25:09;;;;;;;55.65;17.48;;;10.80;48.20;;;;;;5094651;28;20024;-53
2022/01/29 11:27:38;;;;;;;59.72;18.92;;;10.60;51.70;;;;;;5094363;28;20028;-53
2022/01/29 11:30:04;;;;;;;45.67;14.43;;;10.70;50.10;;;;;;5094134;28;20532;-53
2022/01/29 11:32:39;;;;;;;30.02;11.32;;;10.20;53.50;;;;;;5097651;28;20034;-53
2022/01/29 11:35:11;;;;;;;20.33;5.15;;;10.10;51.60;;;;;;5114747;28;20487;-53
2022/01/29 11:38:02;;;;;;;16.60;5.70;;;10.10;55.10;;;;;;5114686;28;20489;-53
2022/01/29 11:40:44;;;;;;;26.73;6.20;;;10.80;50.80;;;;;;5114862;28;20023;-53
2022/01/29 11:43:22;;;;;;;22.15;4.95;;;11.70;50.20;;;;;;5114715;28;20163;-53
2022/01/29 11:46:07;;;;;;;13.63;3.88;;;12.20;47.00;;;;;;5114659;28;20036;-53
2022/01/29 11:48:49;;;;;;;31.33;4.75;;;13.40;42.70;;;;;;5114523;28;20036;-53
2022/01/29 11:51:35;;;;;;;8.85;3.30;;;14.70;41.80;;;;;;5114664;28;20020;-53
2022/01/29 11:54:00;;;;;;;13.93;4.30;;;15.70;37.00;;;;;;5114365;28;20326;-53
2022/01/29 11:56:33;;;;;;;20.80;4.55;;;15.00;35.40;;;;;;5114662;28;20363;-53
2022/01/29 11:59:18;;;;;;;13.88;4.70;;;15.00;36.40;;;;;;5114522;28;20104;-53
2022/01/29 12:01:45;;;;;;;20.63;5.15;;;15.60;36.20;;;;;;5114655;28;20028;-53
2022/01/29 12:04:12;;;;;;;10.80;3.58;;;15.30;35.80;;;;;;5114664;28;20107;-53
2022/01/29 12:06:58;;;;;;;13.60;4.28;;;14.30;35.40;;;;;;5114364;28;20423;-53
2022/01/29 12:09:25;;;;;;;25.02;5.53;;;15.20;36.80;;;;;;5114414;28;20024;-53
2022/01/29 12:12:27;;;;;;;18.55;4.75;;;14.50;35.70;;;;;;5114904;28;20035;-53
2022/01/29 12:14:55;;;;;;;19.50;4.82;;;14.30;38.30;;;;;;5071478;28;20093;-53
2022/01/29 12:17:35;;;;;;;13.85;4.80;;;14.80;38.40;;;;;;5114285;28;20027;-53
2022/01/29 12:20:04;;;;;;;20.95;5.10;;;13.70;36.80;;;;;;5114451;28;20073;-53
2022/01/29 12:22:35;;;;;;;44.08;10.93;;;13.40;38.60;;;;;;5114674;28;20066;-53
2022/01/29 12:25:03;;;;;;;24.50;6.75;;;12.90;39.30;;;;;;5114366;28;20073;-53
2022/01/29 12:28:04;;;;;;;19.85;5.10;;;12.50;39.80;;;;;;5114328;28;20058;-53
2022/01/29 12:30:35;;;;;;;27.40;4.97;;;11.70;41.00;;;;;;5033161;28;20459;-53
2022/01/29 12:33:11;;;;;;;32.03;7.07;;;12.00;41.20;;;;;;5034799;28;20046;-53
2022/01/29 12:36:02;;;;;;;23.55;5.53;;;12.30;41.40;;;;;;5034834;28;20037;-53
2022/01/29 12:38:30;;;;;;;19.52;5.22;;;12.70;40.30;;;;;;5034755;28;20072;-53
2022/01/29 12:40:58;;;;;;;21.50;5.40;;;12.70;40.70;;;;;;5034723;28;20474;-53
2022/01/29 12:44:20;;;;;;;17.73;5.47;;;13.40;40.50;;;;;;5034572;28;20032;-53
2022/01/29 12:46:29;;;;;;;19.27;5.47;;;13.60;39.30;;;;;;5031911;28;20045;-53
2022/01/29 12:49:10;;;;;;;15.52;5.53;;;13.50;38.40;;;;;;5034463;28;20029;-53
2022/01/29 12:51:56;;;;;;;22.90;6.50;;;13.70;37.00;;;;;;5034378;28;20022;-53
2022/01/29 12:54:23;;;;;;;17.42;5.38;;;14.00;37.80;;;;;;5034295;28;20041;-53
2022/01/29 12:56:49;;;;;;;18.17;5.25;;;14.30;37.00;;;;;;5034401;28;20046;-53